createdAt,value
2022-11-15T00:06:13.951Z,4.62
2022-11-15T00:15:50.661Z,4.56
2022-11-15T00:25:27.588Z,4.79
2022-11-15T00:35:05.003Z,4.94
2022-11-15T00:44:41.649Z,4.59
2022-11-15T00:54:18.850Z,5.43
2022-11-15T01:04:00.076Z,5.92
2022-11-15T01:13:33.667Z,6.03
2022-11-15T01:23:10.045Z,5.53
2022-11-15T01:32:46.883Z,5.57
2022-11-15T01:42:23.701Z,5.22
2022-11-15T01:52:00.416Z,4.9
2022-11-15T02:01:37.324Z,5.35
2022-11-15T02:11:14.263Z,4.94
2022-11-15T02:20:51.083Z,5.18
2022-11-15T02:30:28.153Z,5.03
2022-11-15T02:40:06.082Z,5.38
2022-11-15T02:49:43.358Z,5.53
2022-11-15T02:59:20.249Z,5.78
2022-11-15T03:08:57.368Z,5.73
2022-11-15T03:18:33.988Z,4.8
2022-11-15T03:28:10.092Z,4.11
2022-11-15T03:37:46.087Z,3.77
2022-11-15T03:47:21.850Z,3.04
2022-11-15T03:56:58.005Z,3.66
2022-11-15T04:06:35.816Z,4.25
2022-11-15T04:16:13.041Z,4.55
2022-11-15T04:25:50.574Z,4.81
2022-11-15T04:35:27.302Z,4.46
2022-11-15T04:54:42.245Z,5.9
2022-11-15T05:04:19.398Z,5.63
2022-11-15T05:13:56.484Z,5.54
2022-11-15T05:23:33.486Z,5.18
2022-11-15T05:33:08.670Z,4.21
2022-11-15T05:42:44.959Z,4.8
2022-11-15T05:52:22.063Z,4.89
2022-11-15T06:01:58.675Z,4.88
2022-11-15T06:11:35.550Z,5.22
2022-11-15T06:21:12.642Z,5.2
2022-11-15T06:30:53.158Z,4.97
2022-11-15T06:40:26.563Z,4.96
2022-11-15T06:50:03.713Z,5.15
2022-11-15T06:59:40.925Z,5.28
2022-11-15T07:09:17.741Z,5.56
2022-11-15T07:18:55.013Z,5.74
2022-11-15T07:28:31.994Z,5.36
2022-11-15T07:38:08.360Z,4.82
2022-11-15T07:47:44.986Z,4.51
2022-11-15T07:57:22.003Z,4.58
2022-11-15T08:06:59.072Z,4.88
2022-11-15T08:16:36.281Z,5.23
2022-11-15T08:26:14.215Z,6.04
2022-11-15T08:35:52.638Z,6.83
2022-11-15T08:45:30.396Z,7.52
2022-11-15T08:55:08.222Z,7.78
2022-11-15T09:04:45.662Z,7.97
2022-11-15T09:14:23.720Z,8.35
2022-11-15T09:24:01.220Z,9.01
2022-11-15T09:33:39.548Z,9.17
2022-11-15T09:43:17.321Z,9.77
2022-11-15T09:52:55.095Z,10.25
2022-11-15T10:02:33.457Z,10.51
2022-11-15T10:12:11.868Z,11.12
2022-11-15T10:31:28.342Z,11.77
2022-11-15T10:41:06.308Z,11.98
2022-11-15T10:50:44.526Z,12.37
2022-11-15T11:00:22.938Z,12.82
2022-11-15T11:10:02.185Z,13.8
2022-11-15T11:19:42.333Z,13.96
2022-11-15T11:29:18.956Z,14.68
2022-11-15T11:38:56.224Z,14.1
2022-11-15T11:48:32.697Z,14.05
2022-11-15T11:58:09.285Z,14.09
2022-11-15T12:07:45.977Z,14.27
2022-11-15T12:17:23.330Z,14.45
2022-11-15T12:27:02.190Z,14.82
2022-11-15T12:36:40.849Z,15.44
2022-11-15T12:46:20.447Z,14.95
2022-11-15T12:55:57.778Z,15.25
2022-11-15T13:05:36.018Z,15.64
2022-11-15T13:15:15.512Z,16.07
2022-11-15T13:24:51.894Z,16.18
2022-11-15T13:34:50.341Z,16.25
2022-11-15T13:44:04.203Z,15.93
2022-11-15T13:53:39.729Z,15.72
2022-11-15T14:03:17.329Z,15.84
2022-11-15T14:12:53.181Z,15.68
2022-11-15T14:22:30.916Z,15.46
2022-11-15T14:32:06.321Z,14.84
2022-11-15T14:41:41.699Z,14.27
2022-11-15T14:51:17.391Z,13.89
2022-11-15T15:00:53.729Z,13.47
2022-11-15T15:10:44.745Z,12.56
2022-11-15T15:20:05.319Z,11.88
2022-11-15T15:29:41.794Z,11.78
2022-11-15T15:39:18.827Z,11.53
2022-11-15T15:48:55.841Z,11.56
2022-11-15T15:58:32.944Z,12.11
2022-11-15T16:08:09.907Z,11.69
2022-11-15T16:17:46.926Z,11.28
2022-11-15T16:27:23.208Z,11.01
2022-11-15T16:36:59.787Z,11.02
2022-11-15T16:46:36.805Z,10.9
2022-11-15T16:56:13.699Z,10.52
2022-11-15T17:05:50.835Z,11.15
2022-11-15T17:15:28.058Z,10.51
2022-11-15T17:25:05.288Z,10.73
2022-11-15T17:34:42.197Z,10.63
2022-11-15T17:44:19.242Z,10.61
2022-11-15T17:53:56.016Z,10.71
2022-11-15T18:03:32.947Z,10.03
2022-11-15T18:13:09.263Z,10.11
2022-11-15T18:22:46.254Z,10.02
2022-11-15T18:32:22.991Z,9.69
2022-11-15T18:41:59.447Z,9.53
2022-11-15T18:51:36.137Z,9.57
2022-11-15T19:01:13.306Z,9.71
2022-11-15T19:10:50.270Z,9.61
2022-11-15T19:20:27.812Z,9.56
2022-11-15T19:30:04.817Z,9.9
2022-11-15T19:39:42.246Z,9.84
2022-11-15T19:49:19.079Z,9.78
2022-11-15T19:58:56.266Z,9.65
2022-11-15T20:08:33.598Z,9.43
2022-11-15T20:18:10.418Z,9.37
2022-11-15T20:27:47.214Z,9.09
2022-11-15T20:37:24.058Z,8.9
2022-11-15T20:47:00.804Z,9.13
2022-11-15T20:56:38.159Z,9.38
2022-11-15T21:06:18.202Z,9.19
2022-11-15T21:15:53.000Z,9.31
2022-11-15T21:25:29.667Z,9.12
2022-11-15T21:35:06.622Z,9.22
2022-11-15T21:44:43.214Z,8.78
2022-11-15T21:54:20.249Z,8.89
2022-11-15T22:03:56.946Z,8.51
2022-11-15T22:13:34.173Z,8.39
2022-11-15T22:23:10.872Z,8.39
2022-11-15T22:32:47.845Z,8.59
2022-11-15T22:42:24.418Z,8.84
2022-11-15T22:52:01.353Z,8.9
2022-11-15T23:01:38.627Z,8.89
2022-11-15T23:11:15.496Z,8.68
2022-11-15T23:20:52.409Z,8.54
2022-11-15T23:30:29.280Z,8.48
2022-11-15T23:40:06.340Z,8.31
2022-11-15T23:49:43.186Z,8.05
2022-11-15T23:59:20.316Z,8.01
